createdAt,value
2023-03-11T00:02:40.382Z,5.4
2023-03-11T00:12:40.380Z,5.5
2023-03-11T00:22:42.288Z,5.5
2023-03-11T00:42:40.351Z,5.5
2023-03-11T00:52:40.347Z,5.5
2023-03-11T01:02:40.323Z,5.4
2023-03-11T01:12:40.329Z,5.5
2023-03-11T01:22:40.766Z,5.4
2023-03-11T01:32:40.437Z,5.5
2023-03-11T01:42:40.307Z,5.5
2023-03-11T01:52:40.282Z,5.5
2023-03-11T02:02:40.324Z,5.5
2023-03-11T02:12:40.271Z,5.5
2023-03-11T02:22:40.277Z,5.5
2023-03-11T02:32:40.355Z,5.5
2023-03-11T02:42:40.245Z,5.6
2023-03-11T02:52:40.252Z,5.6
2023-03-11T03:02:40.653Z,5.6
2023-03-11T03:12:42.149Z,5.7
2023-03-11T03:22:40.214Z,5.8
2023-03-11T03:32:40.339Z,5.7
2023-03-11T03:42:40.636Z,5.8
2023-03-11T03:52:40.209Z,5.7
2023-03-11T04:02:40.675Z,5.7
2023-03-11T04:12:40.200Z,5.7
2023-03-11T04:22:40.599Z,5.7
2023-03-11T04:32:40.224Z,5.6
2023-03-11T04:42:40.152Z,5.6
2023-03-11T04:52:40.136Z,5.5
2023-03-11T05:02:40.130Z,5.5
2023-03-11T05:12:40.127Z,5.5
2023-03-11T05:22:40.128Z,5.4
2023-03-11T05:42:40.118Z,5.4
2023-03-11T05:52:40.156Z,5.4
2023-03-11T06:02:40.097Z,5.4
2023-03-11T06:12:40.092Z,5.4
2023-03-11T06:22:40.436Z,5.5
2023-03-11T06:32:40.194Z,5.5
2023-03-11T06:42:40.063Z,5.5
2023-03-11T06:52:40.039Z,5.5
2023-03-11T07:02:40.464Z,5.4
2023-03-11T07:12:40.056Z,5.5
2023-03-11T07:22:40.440Z,5.5
2023-03-11T07:32:40.080Z,5.6
2023-03-11T07:42:40.019Z,5.6
2023-03-11T07:52:40.032Z,5.7
2023-03-11T08:12:41.913Z,5.6
2023-03-11T08:22:51.951Z,5.6
2023-03-11T08:32:40.002Z,5.8
2023-03-11T08:42:39.982Z,5.8
2023-03-11T08:52:39.971Z,5.9
2023-03-11T09:02:39.952Z,6
2023-03-11T09:12:39.932Z,6.1
2023-03-11T09:22:39.935Z,6.7
2023-03-11T09:32:40.386Z,6.8
2023-03-11T09:42:39.911Z,7.8
2023-03-11T09:52:40.330Z,8.1
2023-03-11T10:02:41.908Z,9.4
2023-03-11T10:12:39.890Z,9.6
2023-03-11T10:22:39.883Z,9.6
2023-03-11T10:32:39.907Z,9.5
2023-03-11T10:42:40.250Z,9.9
2023-03-11T10:52:39.852Z,10
2023-03-11T11:02:41.557Z,9.7
2023-03-11T11:12:39.831Z,10
2023-03-11T11:22:39.815Z,10.2
2023-03-11T11:32:39.823Z,9.9
2023-03-11T11:42:39.799Z,10
2023-03-11T11:52:39.759Z,10
2023-03-11T12:02:39.756Z,10.2
2023-03-11T12:12:39.740Z,10
2023-03-11T12:22:39.726Z,9.7
2023-03-11T12:32:39.738Z,9.5
2023-03-11T12:42:39.723Z,9.5
2023-03-11T12:52:39.696Z,9.8
2023-03-11T13:02:40.126Z,10.3
2023-03-11T13:12:39.699Z,10.8
2023-03-11T13:22:39.682Z,10.9
2023-03-11T13:32:39.754Z,11.3
2023-03-11T13:42:39.644Z,11.7
2023-03-11T13:52:39.658Z,12.4
2023-03-11T14:02:39.628Z,13.3
2023-03-11T14:12:39.619Z,13
2023-03-11T14:22:39.590Z,13.3
2023-03-11T14:32:39.599Z,13.6
2023-03-11T14:42:39.574Z,13.8
2023-03-11T14:52:39.564Z,13.4
2023-03-11T15:02:39.552Z,13
2023-03-11T15:12:39.534Z,12.8
2023-03-11T15:22:39.511Z,12.7
2023-03-11T15:32:39.557Z,12.6
2023-03-11T15:42:39.501Z,12.5
2023-03-11T15:52:39.887Z,12.6
2023-03-11T16:02:41.400Z,12.4
2023-03-11T16:22:41.345Z,12.1
2023-03-11T16:32:39.467Z,11.9
2023-03-11T16:42:39.418Z,11.8
2023-03-11T16:52:39.517Z,11.7
2023-03-11T17:02:39.815Z,11.5
2023-03-11T17:12:39.814Z,11.2
2023-03-11T17:22:39.382Z,11
2023-03-11T17:32:39.505Z,10.9
2023-03-11T17:42:39.328Z,10.8
2023-03-11T17:52:39.341Z,10.7
2023-03-11T18:02:39.316Z,10.7
2023-03-11T18:12:39.317Z,10.7
2023-03-11T18:22:42.105Z,10.7
2023-03-11T18:32:39.308Z,10.7
2023-03-11T18:42:39.264Z,10.7
2023-03-11T18:52:39.249Z,10.7
2023-03-11T19:02:39.238Z,10.7
2023-03-11T19:12:39.227Z,10.7
2023-03-11T19:22:39.214Z,10.8
2023-03-11T19:32:39.258Z,10.7
2023-03-11T19:42:39.658Z,10.7
2023-03-11T19:52:39.192Z,10.6
2023-03-11T20:02:39.251Z,10.6
2023-03-11T20:12:41.436Z,10.5
2023-03-11T20:22:39.154Z,10.5
2023-03-11T20:32:39.179Z,10.5
2023-03-11T20:42:39.647Z,10.5
2023-03-11T20:52:39.129Z,10.4
2023-03-11T21:02:39.258Z,10.4
2023-03-11T21:12:39.212Z,10.4
2023-03-11T21:22:39.213Z,10.3
2023-03-11T21:32:39.237Z,10.3
2023-03-11T21:42:39.077Z,10.3
2023-03-11T21:52:39.227Z,10.3
2023-03-11T22:02:39.029Z,10.2
2023-03-11T22:12:39.152Z,10.2
2023-03-11T22:22:39.571Z,10.1
2023-03-11T22:32:39.070Z,10.1
2023-03-11T22:42:39.434Z,10
2023-03-11T22:52:39.003Z,10
2023-03-11T23:02:39.022Z,10
2023-03-11T23:12:38.963Z,10
2023-03-11T23:22:38.967Z,10
2023-03-11T23:32:39.021Z,9.9
2023-03-11T23:42:38.947Z,9.9
2023-03-11T23:52:38.952Z,9.9
